Contact Us:
Email: info@sawbill.com
Phone: (218)663-7150
Fax: (218)663-7980
Mail: 4620 Sawbill Trail
Box 2129
Tofte, MN 55615


Powered by
Movable Type 3.15
 
Sawbill Weather History Archives: June 2012
Current Sawbill Weather History | « May 2012 | July 2012 »


Date

High
Temperature

Low
Temperature

Barometric
Pressure

Relative
Humidity 7AM

9 AM
Temperature

Moisture

Snow

6/30/12 79 59 30.18 62% 69 0
6/29/12 80 59 30.00 75% 60 0
6/28/12 83 61 30.02 64% 63 0
6/27/12 80 64 30.00 63% 66 0
6/26/12 76 47 29.97 64% 64 0
6/25/12 72 46 30.21 72% 47 0
6/24/12 69 48 30.36 73% 48 0
6/23/12 73 53 30.24 84% 57 1.14"
6/22/12 72 50 30.12 83% 53 0
6/21/12 68 51 30.09 86% 52 0
6/20/12 65 56 29.94 98% 57 1"
6/19/12 62 58 30.00 98% 60 2.03"
6/18/12 75 58 29.97 82% 58 0
6/17/12 72 55 29.65 98% 59 .61"
6/16/12 78 55 29.88 98% 55 .81"
6/15/12 75 54 30.15 92% 60 0
6/14/12 57 51 30.09 98% 57 .49"
6/13/12 71 44 30.12 69% 55 .1"
6/12/12 59 41 30.24 78% 44 0
6/11/12 71 42 30.09 76% 42 .08"
6/10/12 81 54 29.92 62% 54 .1"
6/9/12 83 55 29.94 84% 56 0
6/8/12 73 54 29.91 86% 55 .07"
6/7/12 76 47 30.09 82% 57 0
6/6/12 74 49 30.08 79% 62 .08"
6/5/12 71 47 30.27 73% 48 0
6/4/12 72 47 30.24 86% 49 .28"
6/3/12 74 51 30.09 76% 55 .07"
6/2/12 71 47 29.91 68% 51 0
6/1/12 67 45 29.85 67% 47 0
 


Home I Trip Planning I Rentals and Outfitting I Reservations I Campgrounds I Sawbill Store I Sawbill News I Contact

© 1997 - 2017, Sawbill Canoe Outfitters, Inc. I Privacy Policy